createdAt,value
2022-12-03T00:02:35.000Z,32.61
2022-12-03T00:07:34.000Z,31.84
2022-12-03T00:17:34.000Z,31.16
2022-12-03T00:22:35.000Z,31.43
2022-12-03T00:27:35.000Z,31.39
2022-12-03T00:32:34.000Z,31.28
2022-12-03T00:37:35.000Z,31.43
2022-12-03T00:42:34.000Z,31.2
2022-12-03T00:47:35.000Z,30.01
2022-12-03T00:52:34.000Z,30.38
2022-12-03T00:57:34.000Z,29.53
2022-12-03T01:02:34.000Z,29.53
2022-12-03T01:07:34.000Z,29.44
2022-12-03T01:12:35.000Z,30.81
2022-12-03T01:17:34.000Z,29.22
2022-12-03T01:22:35.000Z,29.52
2022-12-03T01:27:35.000Z,28.72
2022-12-03T01:32:35.000Z,29.98
2022-12-03T01:37:35.000Z,29.68
2022-12-03T01:42:35.000Z,28.87
2022-12-03T01:47:35.000Z,29.14
2022-12-03T01:52:35.000Z,29.82
2022-12-03T01:57:34.000Z,30.32
2022-12-03T02:02:34.000Z,29.77
2022-12-03T02:07:34.000Z,29.65
2022-12-03T02:12:34.000Z,29.65
2022-12-03T02:17:35.000Z,29.11
2022-12-03T02:22:34.000Z,29.27
2022-12-03T02:27:34.000Z,28.71
2022-12-03T02:32:34.000Z,28.27
2022-12-03T02:37:34.000Z,28.01
2022-12-03T02:42:35.000Z,27.68
2022-12-03T02:47:35.000Z,29.13
2022-12-03T02:52:35.000Z,29.9
2022-12-03T02:57:34.000Z,30.14
2022-12-03T03:07:34.000Z,29.93
2022-12-03T03:12:35.000Z,29.11
2022-12-03T03:17:34.000Z,29.11
2022-12-03T03:22:35.000Z,28.3
2022-12-03T03:27:34.000Z,28.08
2022-12-03T03:32:35.000Z,27.85
2022-12-03T03:37:35.000Z,27.45
2022-12-03T03:42:35.000Z,27.03
2022-12-03T03:52:35.000Z,27.49
2022-12-03T03:57:35.000Z,27.32
2022-12-03T04:02:34.000Z,26.72
2022-12-03T04:07:35.000Z,26.91
2022-12-03T04:12:35.000Z,26.91
2022-12-03T04:17:34.000Z,26.87
2022-12-03T04:22:35.000Z,26.49
2022-12-03T04:27:34.000Z,25.65
2022-12-03T04:37:34.000Z,25.3
2022-12-03T04:42:34.000Z,25.37
2022-12-03T04:47:35.000Z,24.9
2022-12-03T04:52:34.000Z,25.33
2022-12-03T04:57:35.000Z,26.02
2022-12-03T05:02:34.000Z,26.02
2022-12-03T05:07:34.000Z,26.45
2022-12-03T05:12:35.000Z,28.44
2022-12-03T05:17:34.000Z,28.53
2022-12-03T05:22:35.000Z,29.14
2022-12-03T05:27:34.000Z,30.17
2022-12-03T05:32:35.000Z,29.57
2022-12-03T05:37:34.000Z,29.37
2022-12-03T05:42:35.000Z,26
2022-12-03T05:47:35.000Z,23.31
2022-12-03T05:52:34.000Z,24.33
2022-12-03T05:57:35.000Z,26.8
2022-12-03T06:02:35.000Z,28.24
2022-12-03T06:07:34.000Z,28.24
2022-12-03T06:12:35.000Z,26.77
2022-12-03T06:17:34.000Z,27.6
2022-12-03T06:22:34.000Z,29.58
2022-12-03T06:27:35.000Z,28.13
2022-12-03T06:32:35.000Z,32.64
2022-12-03T06:37:34.000Z,35.76
2022-12-03T06:42:35.000Z,31.81
2022-12-03T06:47:35.000Z,34.13
2022-12-03T06:52:34.000Z,40.3
2022-12-03T07:02:34.000Z,37.69
2022-12-03T07:07:35.000Z,36.05
2022-12-03T07:12:34.000Z,33.36
2022-12-03T07:17:34.000Z,33.18
2022-12-03T07:22:35.000Z,29.98
2022-12-03T07:27:35.000Z,33.89
2022-12-03T07:32:35.000Z,39.51
2022-12-03T07:37:34.000Z,40.1
2022-12-03T07:42:35.000Z,40.1
2022-12-03T07:47:35.000Z,36.18
2022-12-03T07:52:35.000Z,35.3
2022-12-03T07:57:34.000Z,31.09
2022-12-03T08:02:35.000Z,29.36
2022-12-03T08:07:34.000Z,27.65
2022-12-03T08:12:35.000Z,31.5
2022-12-03T08:17:34.000Z,27.45
2022-12-03T08:22:35.000Z,28.74
2022-12-03T08:27:35.000Z,27.73
2022-12-03T08:32:34.000Z,26.88
2022-12-03T08:37:35.000Z,26.63
2022-12-03T08:42:35.000Z,25.36
2022-12-03T08:47:34.000Z,26.51
2022-12-03T08:52:35.000Z,29.28
2022-12-03T08:57:34.000Z,29.28
2022-12-03T09:02:35.000Z,30.96
2022-12-03T09:07:35.000Z,28.96
2022-12-03T09:12:35.000Z,26.71
2022-12-03T09:17:35.000Z,26.99
2022-12-03T09:22:35.000Z,25.73
2022-12-03T09:27:35.000Z,24.94
2022-12-03T09:32:35.000Z,24.67
2022-12-03T09:42:35.000Z,24.67
2022-12-03T09:47:35.000Z,23.8
2022-12-03T09:52:35.000Z,23.97
2022-12-03T09:57:35.000Z,23.97
2022-12-03T10:02:34.000Z,24.06
2022-12-03T10:07:35.000Z,24.59
2022-12-03T10:12:34.000Z,23.9
2022-12-03T10:17:34.000Z,22.96
2022-12-03T10:22:34.000Z,22.85
2022-12-03T10:27:35.000Z,22.83
2022-12-03T10:32:35.000Z,23.06
2022-12-03T10:37:35.000Z,23.31
2022-12-03T10:42:35.000Z,22.49
2022-12-03T10:47:35.000Z,22.75
2022-12-03T10:52:36.000Z,21.97
2022-12-03T10:57:35.000Z,21.89
2022-12-03T11:02:34.000Z,22.33
2022-12-03T11:07:35.000Z,22.29
2022-12-03T11:12:35.000Z,22.29
2022-12-03T11:17:35.000Z,22.11
2022-12-03T11:22:35.000Z,21.98
2022-12-03T11:27:34.000Z,20.83
2022-12-03T11:32:41.000Z,21.32
2022-12-03T11:37:35.000Z,21.75
2022-12-03T11:42:34.000Z,25.25
2022-12-03T11:47:35.000Z,24.82
2022-12-03T11:52:34.000Z,24.15
2022-12-03T11:57:34.000Z,26.72
2022-12-03T12:02:34.000Z,30.84
2022-12-03T12:07:35.000Z,27.38
2022-12-03T12:12:35.000Z,25.46
2022-12-03T12:17:34.000Z,24.74
2022-12-03T12:22:35.000Z,24.74
2022-12-03T12:27:35.000Z,23.64
2022-12-03T12:32:34.000Z,21.9
2022-12-03T12:37:34.000Z,22.31
2022-12-03T12:42:35.000Z,22.47
2022-12-03T12:47:34.000Z,21.01
2022-12-03T12:52:34.000Z,19.93
2022-12-03T12:57:34.000Z,18.82
2022-12-03T13:02:35.000Z,19.1
2022-12-03T13:07:35.000Z,19.08
2022-12-03T13:12:34.000Z,18.16
2022-12-03T13:17:35.000Z,18.7
2022-12-03T13:22:34.000Z,19.43
2022-12-03T13:27:35.000Z,18.23
2022-12-03T13:32:34.000Z,17.46
2022-12-03T13:37:35.000Z,17.46
2022-12-03T13:42:35.000Z,16.83
2022-12-03T13:47:34.000Z,16.93
2022-12-03T13:52:34.000Z,16.6
2022-12-03T13:57:34.000Z,16.94
2022-12-03T14:02:35.000Z,16.08
2022-12-03T14:07:34.000Z,16.49
2022-12-03T14:12:35.000Z,16.13
2022-12-03T14:17:34.000Z,15.97
2022-12-03T14:22:35.000Z,16.14
2022-12-03T14:27:35.000Z,16.66
2022-12-03T14:32:35.000Z,16.57
2022-12-03T14:37:34.000Z,15.97
2022-12-03T14:42:35.000Z,15.96
2022-12-03T14:47:34.000Z,15.96
2022-12-03T14:52:35.000Z,16.11
2022-12-03T14:57:34.000Z,15.91
2022-12-03T15:02:34.000Z,15.4
2022-12-03T15:07:35.000Z,15.57
2022-12-03T15:12:34.000Z,15.16
2022-12-03T15:17:42.000Z,15.29
2022-12-03T15:22:35.000Z,14.77
2022-12-03T15:32:35.000Z,17.57
2022-12-03T15:37:35.000Z,19.2
2022-12-03T15:42:35.000Z,22.01
2022-12-03T15:47:35.000Z,22.01
2022-12-03T15:52:34.000Z,21.96
2022-12-03T15:57:35.000Z,19.67
2022-12-03T16:02:35.000Z,19.98
2022-12-03T16:07:34.000Z,17.99
2022-12-03T16:12:35.000Z,18.43
2022-12-03T16:17:34.000Z,19.5
2022-12-03T16:27:36.000Z,16.65
2022-12-03T16:32:34.000Z,14.71
2022-12-03T16:42:34.000Z,14.41
2022-12-03T16:47:43.000Z,14.48
2022-12-03T16:52:34.000Z,14.96
2022-12-03T16:57:41.000Z,14.2
2022-12-03T17:02:35.000Z,14.38
2022-12-03T17:07:35.000Z,14.46
2022-12-03T17:12:35.000Z,14.46
2022-12-03T17:17:35.000Z,14.22
2022-12-03T17:22:34.000Z,14.3
2022-12-03T17:27:35.000Z,14.6
2022-12-03T17:32:35.000Z,15.07
2022-12-03T17:37:34.000Z,14.52
2022-12-03T17:42:35.000Z,14.66
2022-12-03T17:47:34.000Z,15.33
2022-12-03T17:52:35.000Z,13.94
2022-12-03T17:57:34.000Z,14.92
2022-12-03T18:02:35.000Z,15.27
2022-12-03T18:07:34.000Z,15.46
2022-12-03T18:12:35.000Z,15.87
2022-12-03T18:17:35.000Z,15.9
2022-12-03T18:22:34.000Z,15.9
2022-12-03T18:27:35.000Z,16.32
2022-12-03T18:32:39.000Z,16.48
2022-12-03T18:37:34.000Z,16.86
2022-12-03T18:42:35.000Z,17.71
2022-12-03T18:47:35.000Z,16.84
2022-12-03T18:52:35.000Z,17.71
2022-12-03T18:57:35.000Z,18.32
2022-12-03T19:03:04.000Z,18.19
2022-12-03T19:07:34.000Z,17.67
2022-12-03T19:12:35.000Z,17.82
2022-12-03T19:22:34.000Z,17.75
2022-12-03T19:27:35.000Z,17.59
2022-12-03T19:32:34.000Z,17.54
2022-12-03T19:37:35.000Z,16.61
2022-12-03T19:42:34.000Z,16.59
2022-12-03T19:47:35.000Z,16.92
2022-12-03T19:52:34.000Z,17.08
2022-12-03T19:57:35.000Z,17.98
2022-12-03T20:02:35.000Z,17.45
2022-12-03T20:07:34.000Z,17.56
2022-12-03T20:12:35.000Z,18.2
2022-12-03T20:17:34.000Z,17.67
2022-12-03T20:32:35.000Z,17.03
2022-12-03T20:42:35.000Z,17.23
2022-12-03T20:47:35.000Z,17.23
2022-12-03T20:52:35.000Z,16.64
2022-12-03T20:57:35.000Z,16.43
2022-12-03T21:02:34.000Z,16.45
2022-12-03T21:07:35.000Z,15.38
2022-12-03T21:12:34.000Z,16.45
2022-12-03T21:17:35.000Z,16.17
2022-12-03T21:22:35.000Z,15.55
2022-12-03T21:27:35.000Z,15.77
2022-12-03T21:32:35.000Z,15.48
2022-12-03T21:37:34.000Z,15
2022-12-03T21:42:47.000Z,15.44
2022-12-03T21:47:34.000Z,15.52
2022-12-03T21:52:35.000Z,15.87
2022-12-03T21:57:34.000Z,15.83
2022-12-03T22:07:34.000Z,15.25
2022-12-03T22:12:35.000Z,15.73
2022-12-03T22:17:34.000Z,15.96
2022-12-03T22:22:35.000Z,15.53
2022-12-03T22:27:34.000Z,15.53
2022-12-03T22:32:35.000Z,15.99
2022-12-03T22:37:35.000Z,15.9
2022-12-03T22:42:34.000Z,16.72
2022-12-03T22:47:34.000Z,15.56
2022-12-03T22:52:35.000Z,15.6
2022-12-03T22:57:34.000Z,16.67
2022-12-03T23:07:35.000Z,16.49
2022-12-03T23:12:34.000Z,16.55
2022-12-03T23:17:35.000Z,16.39
2022-12-03T23:22:35.000Z,17.6
2022-12-03T23:27:34.000Z,16.94
2022-12-03T23:32:35.000Z,17.1
2022-12-03T23:37:35.000Z,17.38
2022-12-03T23:42:34.000Z,17.38
2022-12-03T23:47:35.000Z,16.94
2022-12-03T23:52:34.000Z,17.02
2022-12-03T23:57:35.000Z,17.14
